Terminal Aerodrome Forecast
Issued by NWS Twin Cities, MN

Home | Current Version | Previous Version | Text Only | Print | Product List | Glossary On
Versions: 1 2 3 4 5 6 7 8 9 10 11 12 13 14 15 16 17 18 19
808
FTUS43 KMPX 291241 AAA
TAFSTC
TAF AMD
KSTC 291241Z 2913/3012 VRB02KT 6SM BR SCT005
     FM291500 04006KT P6SM SCT050=

USA.gov is the U.S. government's official web portal to all federal, state and local government web resources and services.